Time;durP1;ratioP1;P1;durP2;ratioP2;P2;SDS_P1;SDS_P2;PMS_P1;PMS_P2;Temp;Humidity;BMP_temperature;BMP_pressure;BME280_temperature;BME280_humidity;BME280_pressure;Samples;Min_cycle;Max_cycle;Signal;HPM_P1;HPM_P2
2022/04/30 04:02:31;;;;;;;19.08;14.38;;;9.80;99.90;;;;;;5098945;22;20184;-70
2022/04/30 04:04:57;;;;;;;21.73;15.40;;;9.80;99.90;;;;;;5054510;28;20115;-69
2022/04/30 04:07:22;;;;;;;21.17;16.20;;;9.80;99.90;;;;;;5055050;28;20092;-69
2022/04/30 04:09:48;;;;;;;25.10;17.27;;;9.80;99.90;;;;;;5054966;28;20046;-69
2022/04/30 04:12:14;;;;;;;23.73;18.27;;;9.80;99.90;;;;;;5071371;28;20087;-70
2022/04/30 04:17:39;;;;;;;20.25;16.08;;;9.90;99.90;;;;;;5075114;28;20033;-69
2022/04/30 04:20:17;;;;;;;21.00;16.27;;;9.90;99.90;;;;;;5073533;28;20033;-70
2022/04/30 04:22:43;;;;;;;23.98;16.48;;;10.00;99.90;;;;;;5074899;28;20040;-69
2022/04/30 04:27:55;;;;;;;22.17;17.55;;;10.00;99.90;;;;;;5075677;28;20482;-69
2022/04/30 04:30:25;;;;;;;23.83;18.42;;;10.00;99.90;;;;;;5074580;28;20434;-70
2022/04/30 04:32:50;;;;;;;25.25;17.92;;;10.10;99.90;;;;;;5074669;28;20047;-70
2022/04/30 04:35:16;;;;;;;29.67;19.27;;;10.10;99.90;;;;;;5074606;28;20040;-70
2022/04/30 04:37:45;;;;;;;25.73;18.35;;;10.10;99.90;;;;;;5074821;28;20491;-71
2022/04/30 04:40:12;;;;;;;29.10;20.05;;;10.10;99.90;;;;;;5074396;28;20081;-70
2022/04/30 04:42:42;;;;;;;28.38;19.10;;;10.20;99.90;;;;;;5074543;28;20112;-70
2022/04/30 04:45:08;;;;;;;25.33;18.52;;;10.20;99.90;;;;;;5074461;28;20035;-70
2022/04/30 04:47:35;;;;;;;25.35;18.70;;;10.30;99.90;;;;;;5074618;28;20041;-71
2022/04/30 04:50:04;;;;;;;24.27;17.90;;;10.40;99.90;;;;;;5074485;28;20442;-71
2022/04/30 04:52:30;;;;;;;26.60;18.10;;;10.40;99.90;;;;;;5074252;28;20517;-70
2022/04/30 04:54:57;;;;;;;28.48;17.70;;;10.50;99.90;;;;;;5072529;28;20029;-70
2022/04/30 04:57:23;;;;;;;25.30;18.30;;;10.60;99.90;;;;;;5074238;28;20044;-71
2022/04/30 04:59:49;;;;;;;23.77;17.48;;;10.70;99.90;;;;;;5074365;28;20036;-70
2022/04/30 05:02:15;;;;;;;23.58;15.85;;;10.80;99.90;;;;;;5073939;28;20498;-71
2022/04/30 05:04:41;;;;;;;26.45;16.45;;;11.00;99.90;;;;;;5073969;28;20487;-71
2022/04/30 05:07:06;;;;;;;28.60;17.05;;;11.00;99.90;;;;;;5074170;28;20052;-70
2022/04/30 05:09:32;;;;;;;25.13;15.93;;;11.10;99.90;;;;;;5074310;28;20040;-70
2022/04/30 05:12:01;;;;;;;26.77;16.17;;;11.20;99.90;;;;;;5073850;28;20033;-71
2022/04/30 05:14:34;;;;;;;25.23;16.25;;;11.30;99.90;;;;;;5073899;28;20029;-71
2022/04/30 05:17:01;;;;;;;21.20;14.68;;;11.30;99.90;;;;;;5074298;28;20581;-70
2022/04/30 05:19:26;;;;;;;19.27;15.40;;;11.40;99.90;;;;;;5073700;28;20069;-71
2022/04/30 05:21:52;;;;;;;24.17;15.82;;;11.50;99.90;;;;;;5073687;28;20080;-71
2022/04/30 05:24:18;;;;;;;27.33;16.08;;;11.60;99.90;;;;;;5075703;28;20033;-72
2022/04/30 05:26:43;;;;;;;24.52;15.73;;;11.70;99.90;;;;;;5077607;28;20132;-71
2022/04/30 05:29:09;;;;;;;24.02;15.48;;;11.80;99.90;;;;;;5077570;28;20040;-71
2022/04/30 05:31:34;;;;;;;24.00;15.45;;;11.80;99.90;;;;;;5077249;28;20045;-71
2022/04/30 05:34:00;;;;;;;26.50;16.50;;;11.80;99.90;;;;;;5076091;28;20029;-71
2022/04/30 05:36:25;;;;;;;23.13;16.13;;;11.80;99.90;;;;;;5077315;28;20397;-72
2022/04/30 05:38:51;;;;;;;25.67;17.95;;;11.80;99.90;;;;;;5077450;28;20033;-72
2022/04/30 05:41:17;;;;;;;23.98;15.85;;;11.90;99.90;;;;;;5075706;28;20513;-72
2022/04/30 05:43:43;;;;;;;25.65;15.77;;;11.80;99.90;;;;;;5077130;28;20041;-72
2022/04/30 05:46:08;;;;;;;28.33;15.77;;;11.90;99.90;;;;;;5077484;28;20044;-71
2022/04/30 05:48:34;;;;;;;28.67;15.55;;;11.90;99.90;;;;;;5077638;28;20028;-72
2022/04/30 05:51:01;;;;;;;26.60;16.45;;;11.90;99.90;;;;;;5077059;28;20039;-73
2022/04/30 05:53:27;;;;;;;24.38;15.60;;;12.00;99.90;;;;;;5077390;28;20044;-73
2022/04/30 05:55:53;;;;;;;27.33;15.40;;;12.10;99.90;;;;;;5076821;28;20044;-72
2022/04/30 05:58:19;;;;;;;24.80;15.48;;;12.30;99.90;;;;;;5077407;28;20060;-71
2022/04/30 06:00:44;;;;;;;23.15;14.88;;;12.40;99.90;;;;;;5075822;28;20198;-70
2022/04/30 06:03:10;;;;;;;21.60;13.85;;;12.40;99.90;;;;;;5077135;28;20104;-71
2022/04/30 06:05:37;;;;;;;19.85;13.75;;;12.60;99.90;;;;;;5077091;28;20037;-70
2022/04/30 06:08:03;;;;;;;25.67;14.43;;;12.60;99.90;;;;;;5077088;28;20033;-70
2022/04/30 06:10:29;;;;;;;44.50;17.65;;;12.60;99.90;;;;;;5076898;28;20028;-71
2022/04/30 06:12:55;;;;;;;21.50;14.30;;;12.70;99.90;;;;;;5077055;28;20479;-71
2022/04/30 06:15:20;;;;;;;23.25;14.63;;;12.70;99.90;;;;;;5076992;28;20382;-72
2022/04/30 06:17:46;;;;;;;20.17;14.82;;;12.60;99.90;;;;;;5075714;28;20506;-74
2022/04/30 06:20:12;;;;;;;23.30;14.60;;;12.60;99.90;;;;;;5076900;28;20103;-72
2022/04/30 06:22:37;;;;;;;21.05;14.48;;;12.70;99.90;;;;;;5076955;28;20509;-72
2022/04/30 06:25:04;;;;;;;23.80;14.82;;;12.60;99.90;;;;;;5076879;28;20029;-77
2022/04/30 06:27:29;;;;;;;20.30;15.00;;;12.70;99.90;;;;;;5076850;28;20033;-76
2022/04/30 06:29:55;;;;;;;21.35;14.82;;;12.70;99.90;;;;;;5077383;28;20398;-75
2022/04/30 06:32:20;;;;;;;20.27;16.52;;;12.60;99.90;;;;;;5077200;28;20407;-76
2022/04/30 06:34:46;;;;;;;23.42;14.52;;;12.60;99.90;;;;;;5075533;28;20501;-77
2022/04/30 06:37:11;;;;;;;23.17;14.15;;;12.50;99.90;;;;;;5077403;28;20052;-75
2022/04/30 06:39:37;;;;;;;23.63;14.95;;;12.60;99.90;;;;;;5077045;28;20037;-76
2022/04/30 06:42:03;;;;;;;20.77;14.93;;;12.60;99.90;;;;;;5074995;28;20502;-76
2022/04/30 06:44:28;;;;;;;35.50;16.60;;;12.50;99.90;;;;;;5076257;28;20037;-75
2022/04/30 06:46:54;;;;;;;25.83;16.70;;;12.40;99.90;;;;;;5074765;28;20040;-77
2022/04/30 06:49:21;;;;;;;28.58;16.25;;;12.40;99.90;;;;;;5076583;28;20020;-78
2022/04/30 06:51:48;;;;;;;26.42;15.73;;;12.40;99.90;;;;;;5076038;28;20030;-76
2022/04/30 06:57:17;;;;;;;20.42;14.30;;;12.50;99.90;;;;;;5076617;28;20483;-76
2022/04/30 06:59:45;;;;;;;24.58;14.40;;;12.60;99.90;;;;;;5074823;28;20040;-77
2022/04/30 07:02:13;;;;;;;18.27;14.57;;;12.60;99.90;;;;;;5075778;28;20533;-77
2022/04/30 07:04:41;;;;;;;22.33;15.77;;;12.60;99.90;;;;;;5076100;28;20108;-76
2022/04/30 07:07:07;;;;;;;20.88;14.18;;;12.60;99.90;;;;;;5076089;28;20483;-76
2022/04/30 07:09:32;;;;;;;21.75;15.80;;;12.60;99.90;;;;;;5076093;28;20073;-76
2022/04/30 07:12:00;;;;;;;22.08;15.63;;;12.70;99.90;;;;;;5076567;28;20036;-80
2022/04/30 07:14:25;;;;;;;23.30;14.88;;;12.70;99.90;;;;;;5076067;28;20588;-76
2022/04/30 07:16:51;;;;;;;21.90;14.98;;;12.80;99.90;;;;;;5077605;28;20175;-80
2022/04/30 07:19:16;;;;;;;22.35;16.05;;;12.70;99.90;;;;;;5077499;28;20078;-81
2022/04/30 07:21:42;;;;;;;23.98;15.20;;;12.70;99.90;;;;;;5076497;28;20045;-75
2022/04/30 07:24:10;;;;;;;23.02;16.38;;;12.90;99.90;;;;;;5077040;28;20037;-76
2022/04/30 07:26:36;;;;;;;24.13;15.82;;;12.90;99.90;;;;;;5076662;28;20040;-74
2022/04/30 07:29:04;;;;;;;22.05;15.82;;;13.00;99.90;;;;;;5076393;28;20398;-75
2022/04/30 07:31:30;;;;;;;24.92;16.17;;;13.10;99.90;;;;;;5076508;28;20881;-75
2022/04/30 07:33:55;;;;;;;23.42;15.48;;;13.10;99.90;;;;;;5078185;28;20083;-76
2022/04/30 07:36:21;;;;;;;24.10;15.80;;;13.30;99.90;;;;;;5077596;28;20107;-75
2022/04/30 07:38:46;;;;;;;22.02;16.13;;;13.60;99.90;;;;;;5075315;28;20033;-77
2022/04/30 07:41:12;;;;;;;21.67;14.63;;;13.90;99.90;;;;;;5076046;28;20044;-76
2022/04/30 07:43:38;;;;;;;18.80;14.57;;;14.10;99.90;;;;;;5077418;28;20103;-76
2022/04/30 07:46:03;;;;;;;21.67;15.07;;;14.20;99.90;;;;;;5076108;28;20037;-76
2022/04/30 07:48:29;;;;;;;24.77;15.57;;;14.20;99.90;;;;;;5076196;28;20025;-75
2022/04/30 07:50:57;;;;;;;18.08;14.13;;;14.00;99.90;;;;;;5074185;28;20041;-77
2022/04/30 07:53:23;;;;;;;20.42;14.50;;;14.00;99.90;;;;;;5075793;28;20025;-77
2022/04/30 07:55:54;;;;;;;21.60;15.57;;;13.90;99.90;;;;;;5075971;28;20098;-76
2022/04/30 07:58:20;;;;;;;21.20;14.68;;;13.80;99.90;;;;;;5075283;28;20037;-77
2022/04/30 08:00:46;;;;;;;22.10;14.60;;;13.90;99.90;;;;;;5074833;28;20039;-77
2022/04/30 08:03:11;;;;;;;22.15;14.43;;;13.90;99.90;;;;;;5076543;28;20517;-75
2022/04/30 08:05:42;;;;;;;19.08;15.15;;;13.80;99.90;;;;;;5073506;28;20033;-75
2022/04/30 08:08:08;;;;;;;21.55;15.40;;;13.70;99.90;;;;;;5076338;28;20501;-76
2022/04/30 08:10:36;;;;;;;24.08;15.50;;;13.60;99.90;;;;;;5082660;28;20033;-76
2022/04/30 08:13:02;;;;;;;22.63;14.93;;;13.60;99.90;;;;;;5091323;28;20486;-76
2022/04/30 08:15:28;;;;;;;24.13;14.50;;;13.50;99.90;;;;;;5078431;28;20505;-75
2022/04/30 08:17:54;;;;;;;19.08;13.52;;;13.70;99.90;;;;;;5087064;28;20036;-75
2022/04/30 08:20:20;;;;;;;19.38;14.05;;;14.00;99.90;;;;;;5082718;28;20516;-77
2022/04/30 08:22:45;;;;;;;20.00;14.93;;;14.30;99.90;;;;;;5087121;28;20037;-75
2022/04/30 08:25:11;;;;;;;18.98;14.10;;;14.50;99.90;;;;;;5086139;28;20119;-77
2022/04/30 08:27:40;;;;;;;18.70;13.75;;;14.50;99.90;;;;;;5080041;28;20044;-76
2022/04/30 08:30:07;;;;;;;19.08;14.60;;;14.50;99.90;;;;;;5091283;28;20032;-75
2022/04/30 08:32:32;;;;;;;19.15;14.70;;;14.50;99.90;;;;;;5080599;28;20123;-76
2022/04/30 08:35:00;;;;;;;22.98;14.75;;;14.50;99.90;;;;;;5085128;28;20029;-77
2022/04/30 08:37:26;;;;;;;18.95;14.65;;;14.60;99.90;;;;;;5088535;28;20501;-76
2022/04/30 08:39:52;;;;;;;20.85;14.50;;;14.70;99.90;;;;;;5078345;28;20024;-76
2022/04/30 08:42:20;;;;;;;18.95;14.38;;;14.60;99.90;;;;;;5079353;28;20093;-76
2022/04/30 08:44:45;;;;;;;18.23;14.38;;;14.60;99.90;;;;;;5087468;28;20044;-76
2022/04/30 08:47:11;;;;;;;19.20;14.55;;;14.50;99.90;;;;;;5087351;28;20043;-76
2022/04/30 08:49:42;;;;;;;19.10;14.50;;;14.60;99.90;;;;;;5081014;28;20025;-76
2022/04/30 08:52:09;;;;;;;28.15;15.93;;;14.60;99.90;;;;;;5091592;28;20040;-75
2022/04/30 08:54:35;;;;;;;18.05;13.95;;;14.40;99.90;;;;;;5083041;28;20033;-75
2022/04/30 08:57:00;;;;;;;23.30;14.88;;;14.40;99.90;;;;;;5087978;28;20032;-75
2022/04/30 08:59:27;;;;;;;17.75;14.18;;;14.20;99.90;;;;;;5085313;28;20069;-75
2022/04/30 09:01:57;;;;;;;20.88;14.75;;;14.30;99.90;;;;;;5094470;28;20040;-76
2022/04/30 09:04:24;;;;;;;17.30;13.40;;;14.40;99.90;;;;;;5083131;28;20032;-76
2022/04/30 09:06:58;;;;;;;22.13;14.38;;;14.70;99.90;;;;;;5088143;28;20079;-75
2022/04/30 09:09:28;;;;;;;17.80;14.57;;;14.90;99.90;;;;;;5097659;28;20449;-77
2022/04/30 09:12:10;;;;;;;17.38;12.90;;;15.20;99.90;;;;;;5086922;28;20032;-77
2022/04/30 09:14:40;;;;;;;18.58;13.75;;;15.00;99.90;;;;;;5089769;28;20517;-74
2022/04/30 09:17:13;;;;;;;18.42;13.45;;;14.80;99.90;;;;;;5088484;28;20036;-75
2022/04/30 09:19:51;;;;;;;18.83;14.05;;;14.90;99.90;;;;;;5082650;28;20525;-75
2022/04/30 09:22:31;;;;;;;15.88;13.93;;;15.10;99.90;;;;;;5063984;28;20040;-76
2022/04/30 09:24:58;;;;;;;20.08;13.73;;;15.60;99.90;;;;;;5088326;28;20064;-75
2022/04/30 09:27:25;;;;;;;18.83;13.13;;;16.00;99.90;;;;;;5089377;28;20043;-75
2022/04/30 09:29:53;;;;;;;15.63;12.68;;;16.10;99.90;;;;;;5079677;28;20029;-75
2022/04/30 09:32:30;;;;;;;14.75;12.43;;;16.20;99.90;;;;;;5094019;28;20040;-76
2022/04/30 09:37:41;;;;;;;13.70;11.77;;;16.90;99.90;;;;;;5082434;28;20037;-76
2022/04/30 09:40:18;;;;;;;14.13;12.00;;;16.90;99.90;;;;;;5095106;28;20480;-76
2022/04/30 09:42:48;;;;;;;15.32;12.05;;;16.60;99.90;;;;;;5084864;28;20041;-77
2022/04/30 09:45:24;;;;;;;15.77;11.48;;;16.20;99.90;;;;;;5085434;28;20111;-77
2022/04/30 09:47:50;;;;;;;14.55;11.15;;;16.10;99.90;;;;;;5090587;28;20109;-76
2022/04/30 09:55:52;;;;;;;12.88;11.18;;;16.40;99.90;;;;;;5083655;28;20064;-77
2022/04/30 09:58:24;;;;;;;13.80;11.52;;;16.60;99.90;;;;;;5094263;28;20035;-77
2022/04/30 10:00:56;;;;;;;12.07;10.73;;;16.60;99.90;;;;;;5081359;28;20037;-76
2022/04/30 10:03:26;;;;;;;12.02;10.75;;;16.30;99.90;;;;;;5086221;28;20461;-76
2022/04/30 10:06:04;;;;;;;13.02;11.27;;;16.20;99.90;;;;;;5090219;28;20037;-75
2022/04/30 10:08:35;;;;;;;14.05;11.18;;;16.40;99.90;;;;;;5079132;28;20091;-76
2022/04/30 10:11:42;;;;;;;14.25;11.07;;;16.80;99.90;;;;;;5091879;28;20047;-75
2022/04/30 10:14:38;;;;;;;13.55;10.82;;;17.00;99.90;;;;;;5066253;22;20062;-82
2022/04/30 10:17:12;;;;;;;12.73;10.90;;;16.30;99.90;;;;;;5036962;28;20046;-82
2022/04/30 10:19:56;;;;;;;13.77;11.30;;;16.10;99.90;;;;;;5040132;28;20036;-82
2022/04/30 10:22:24;;;;;;;12.13;10.75;;;15.70;99.90;;;;;;5040532;28;20042;-81
2022/04/30 10:24:58;;;;;;;12.90;11.43;;;15.50;99.90;;;;;;5039971;28;20106;-80
2022/04/30 10:27:37;;;;;;;13.35;11.73;;;15.60;99.90;;;;;;5038275;28;20026;-82
2022/04/30 10:30:05;;;;;;;13.20;11.68;;;16.00;99.90;;;;;;5034928;28;20079;-80
2022/04/30 10:32:38;;;;;;;13.40;11.85;;;16.30;99.90;;;;;;5040945;28;20530;-81
2022/04/30 10:35:05;;;;;;;13.05;11.65;;;16.60;99.90;;;;;;5054897;28;20042;-82
2022/04/30 10:37:35;;;;;;;18.60;11.13;;;16.40;99.90;;;;;;5039845;28;20134;-81
2022/04/30 10:40:11;;;;;;;15.40;11.80;;;16.40;99.90;;;;;;5039853;28;20474;-81
2022/04/30 10:42:44;;;;;;;11.50;10.30;;;16.50;99.90;;;;;;5039694;28;20038;-83
2022/04/30 10:45:15;;;;;;;13.27;10.50;;;16.60;99.90;;;;;;5036491;28;20165;-85
2022/04/30 10:47:59;;;;;;;14.75;11.38;;;16.50;99.90;;;;;;5036176;28;20517;-85
2022/04/30 10:50:24;;;;;;;12.48;10.65;;;16.50;99.90;;;;;;5038112;28;20030;-85
2022/04/30 10:52:51;;;;;;;9.95;8.90;;;15.90;99.90;;;;;;5019055;28;20040;-80
2022/04/30 10:55:19;;;;;;;9.48;8.57;;;15.60;99.90;;;;;;5016855;28;20040;-80
2022/04/30 10:57:46;;;;;;;8.98;8.07;;;15.30;99.90;;;;;;5019499;28;20042;-80
2022/04/30 11:00:13;;;;;;;8.45;7.53;;;15.10;99.90;;;;;;5019631;28;20030;-82
2022/04/30 11:02:38;;;;;;;9.20;7.70;;;15.10;99.90;;;;;;5018049;28;20507;-81
2022/04/30 11:05:04;;;;;;;9.02;7.93;;;15.10;99.90;;;;;;5019398;28;20109;-80
2022/04/30 11:07:31;;;;;;;7.95;7.15;;;15.30;99.90;;;;;;5020418;28;20038;-80
2022/04/30 11:09:57;;;;;;;7.18;6.45;;;15.20;99.90;;;;;;5020742;28;20026;-81
2022/04/30 11:12:30;;;;;;;7.72;6.45;;;15.40;99.90;;;;;;5020537;28;20042;-81
2022/04/30 11:14:56;;;;;;;8.13;5.55;;;15.30;99.90;;;;;;5015829;28;20026;-80
2022/04/30 11:17:22;;;;;;;6.50;5.90;;;15.50;99.90;;;;;;5030258;28;20499;-80
2022/04/30 11:19:48;;;;;;;6.55;5.85;;;15.40;99.90;;;;;;5056934;28;20029;-79
2022/04/30 11:22:14;;;;;;;7.65;6.68;;;15.30;99.90;;;;;;5054385;28;20045;-79
2022/04/30 11:24:41;;;;;;;7.93;6.90;;;15.20;99.90;;;;;;5036978;28;20038;-79
2022/04/30 11:27:12;;;;;;;7.68;6.70;;;14.70;99.90;;;;;;5034411;28;20041;-77
2022/04/30 11:29:49;;;;;;;7.65;6.22;;;14.40;99.90;;;;;;5034851;28;20044;-80
2022/04/30 11:32:23;;;;;;;7.00;6.30;;;14.00;99.90;;;;;;5037970;28;20038;-80
2022/04/30 11:34:55;;;;;;;8.02;6.82;;;13.60;99.90;;;;;;5034768;28;20116;-80
2022/04/30 11:37:21;;;;;;;8.38;7.53;;;13.30;99.90;;;;;;5032221;28;20482;-81
2022/04/30 11:39:46;;;;;;;8.68;6.63;;;13.20;99.90;;;;;;5036314;28;20030;-82
2022/04/30 11:42:15;;;;;;;6.95;6.10;;;13.20;99.90;;;;;;5034952;28;20042;-82
2022/04/30 11:44:44;;;;;;;7.15;6.45;;;13.10;99.90;;;;;;5053675;28;20051;-83
2022/04/30 11:47:10;;;;;;;6.80;6.10;;;12.90;99.90;;;;;;5048291;28;20089;-85
2022/04/30 11:49:36;;;;;;;7.25;6.55;;;12.70;99.90;;;;;;5035072;28;20092;-83
2022/04/30 11:52:02;;;;;;;6.68;6.00;;;12.60;99.90;;;;;;5034780;28;20041;-84
2022/04/30 11:54:29;;;;;;;7.28;6.10;;;12.60;99.90;;;;;;5035658;28;20057;-82
2022/04/30 11:56:57;;;;;;;7.47;6.20;;;12.50;99.90;;;;;;5054105;28;20818;-83
2022/04/30 11:59:34;;;;;;;6.47;5.78;;;12.50;99.90;;;;;;5020550;28;20069;-82
2022/04/30 12:02:08;;;;;;;9.00;6.30;;;12.60;99.90;;;;;;5048130;28;20044;-80
2022/04/30 12:04:36;;;;;;;6.30;5.70;;;12.70;99.90;;;;;;5037819;28;20041;-81
2022/04/30 12:07:05;;;;;;;10.18;5.88;;;12.70;99.90;;;;;;5051778;28;20046;-80
2022/04/30 12:09:33;;;;;;;9.45;6.25;;;12.60;99.90;;;;;;5029607;28;20510;-79
2022/04/30 12:12:00;;;;;;;7.85;6.60;;;12.70;99.90;;;;;;5039222;28;20065;-83
2022/04/30 12:14:27;;;;;;;7.18;6.30;;;12.50;99.90;;;;;;5050406;28;20064;-81
2022/04/30 12:16:54;;;;;;;7.70;6.70;;;12.50;99.90;;;;;;5039159;28;20569;-80
2022/04/30 12:25:16;;;;;;;9.82;8.02;;;12.40;99.90;;;;;;5027421;28;20037;-82
2022/04/30 12:27:55;;;;;;;11.88;9.80;;;12.30;99.90;;;;;;5044887;28;20033;-83
2022/04/30 12:30:23;;;;;;;11.13;8.90;;;12.20;99.90;;;;;;5049681;28;20022;-83
2022/04/30 12:33:05;;;;;;;10.18;8.75;;;12.30;99.90;;;;;;5037632;28;20034;-78
2022/04/30 12:35:38;;;;;;;10.25;9.15;;;12.30;99.90;;;;;;5047598;28;20033;-78
2022/04/30 12:38:18;;;;;;;9.77;8.77;;;12.40;99.90;;;;;;5046973;28;20040;-80
2022/04/30 12:40:50;;;;;;;9.65;8.52;;;12.30;99.90;;;;;;5054017;28;20111;-81
2022/04/30 12:43:31;;;;;;;9.00;7.95;;;12.20;99.90;;;;;;5035727;28;20511;-79
2022/04/30 12:45:56;;;;;;;8.82;7.93;;;12.40;99.90;;;;;;5036383;28;20034;-79
2022/04/30 12:48:25;;;;;;;9.25;7.75;;;12.60;99.90;;;;;;5050101;28;20033;-80
2022/04/30 12:50:51;;;;;;;8.80;7.90;;;12.80;99.90;;;;;;5051019;28;20800;-80
2022/04/30 12:53:22;;;;;;;8.95;7.90;;;13.00;99.90;;;;;;5044072;28;20468;-80
2022/04/30 12:55:50;;;;;;;10.07;7.60;;;13.00;99.90;;;;;;5044876;28;20038;-80
2022/04/30 12:58:16;;;;;;;9.45;7.75;;;12.90;99.90;;;;;;5050789;28;20021;-80
2022/04/30 13:00:44;;;;;;;9.57;8.23;;;12.80;99.90;;;;;;5042405;28;20431;-80
2022/04/30 13:03:10;;;;;;;8.77;7.50;;;12.70;99.90;;;;;;5051961;28;20407;-80
2022/04/30 13:05:39;;;;;;;8.52;7.63;;;12.70;99.90;;;;;;5017671;28;20507;-78
2022/04/30 13:08:05;;;;;;;8.60;7.70;;;12.70;99.90;;;;;;5035787;28;20128;-78
2022/04/30 13:13:34;;;;;;;10.55;8.93;;;12.50;99.90;;;;;;5028530;28;20050;-80
2022/04/30 13:16:07;;;;;;;12.90;10.15;;;11.90;99.90;;;;;;5031303;28;20057;-79
2022/04/30 13:18:34;;;;;;;13.30;10.90;;;11.70;99.90;;;;;;5033515;28;20038;-80
2022/04/30 13:21:01;;;;;;;14.50;12.27;;;11.60;99.90;;;;;;5033342;28;20112;-80
2022/04/30 13:23:27;;;;;;;13.82;12.00;;;11.70;99.90;;;;;;5037574;28;20106;-81
2022/04/30 13:25:52;;;;;;;14.05;11.77;;;11.60;99.90;;;;;;5041861;28;20141;-80
2022/04/30 13:28:18;;;;;;;14.57;11.63;;;11.60;99.90;;;;;;5040483;28;20034;-80
2022/04/30 13:30:43;;;;;;;15.43;12.15;;;11.70;99.90;;;;;;5039396;28;20042;-80
2022/04/30 13:33:09;;;;;;;16.27;12.00;;;12.00;99.90;;;;;;5060753;28;20034;-81
2022/04/30 13:35:35;;;;;;;12.75;11.38;;;12.20;99.90;;;;;;5060932;28;20033;-80
2022/04/30 13:38:01;;;;;;;11.90;10.68;;;12.40;99.90;;;;;;5061401;28;20017;-81
2022/04/30 13:40:27;;;;;;;12.57;11.07;;;12.50;99.90;;;;;;5060209;28;20387;-80
2022/04/30 13:42:52;;;;;;;14.63;12.70;;;12.40;99.90;;;;;;5063539;28;20402;-80
2022/04/30 13:45:18;;;;;;;13.25;11.80;;;12.20;99.90;;;;;;5041480;28;20121;-83
2022/04/30 13:47:44;;;;;;;13.82;12.13;;;11.90;99.90;;;;;;5042672;28;20038;-84
2022/04/30 13:50:10;;;;;;;16.95;12.48;;;11.70;99.90;;;;;;5046396;28;20088;-85
2022/04/30 13:52:37;;;;;;;15.57;12.80;;;11.60;99.90;;;;;;5043236;28;20044;-80
2022/04/30 13:55:07;;;;;;;16.15;13.23;;;11.50;99.90;;;;;;5046604;28;20061;-81
2022/04/30 13:57:32;;;;;;;18.33;13.82;;;11.40;99.90;;;;;;5048514;28;20038;-82
2022/04/30 13:59:58;;;;;;;18.50;14.32;;;11.20;99.90;;;;;;5051728;28;20514;-81
2022/04/30 14:02:26;;;;;;;19.50;15.27;;;11.10;99.90;;;;;;5051401;28;20072;-81
2022/04/30 14:04:52;;;;;;;18.55;14.50;;;11.00;99.90;;;;;;5051525;28;20030;-81
2022/04/30 14:07:18;;;;;;;19.25;15.82;;;11.00;99.90;;;;;;5047168;28;20041;-82
2022/04/30 14:09:44;;;;;;;16.90;14.38;;;10.90;99.90;;;;;;5036669;28;20026;-82
2022/04/30 14:12:10;;;;;;;19.25;15.05;;;10.90;99.90;;;;;;5038509;28;20479;-83
2022/04/30 14:20:05;;;;;;;19.48;14.93;;;10.80;99.90;;;;;;5027609;28;20049;-83
2022/04/30 14:22:33;;;;;;;19.08;15.32;;;10.80;99.90;;;;;;5027237;28;20033;-81
2022/04/30 14:24:58;;;;;;;19.25;15.02;;;10.90;99.90;;;;;;5027382;28;20110;-82
2022/04/30 14:27:24;;;;;;;19.98;16.15;;;10.80;99.90;;;;;;5029580;28;20137;-84
2022/04/30 14:29:49;;;;;;;23.35;16.83;;;10.80;99.90;;;;;;5030989;28;20087;-82
2022/04/30 14:32:15;;;;;;;20.08;15.27;;;10.80;99.90;;;;;;5025887;28;20038;-82
2022/04/30 14:34:41;;;;;;;19.95;16.00;;;10.70;99.90;;;;;;5023784;28;20037;-82
2022/04/30 14:37:07;;;;;;;20.92;16.25;;;10.60;99.90;;;;;;5026273;28;20042;-85
2022/04/30 14:39:33;;;;;;;22.35;17.05;;;10.50;99.90;;;;;;5025406;28;20069;-82
2022/04/30 14:42:00;;;;;;;23.95;17.65;;;10.50;99.90;;;;;;5037127;28;20049;-83
2022/04/30 14:44:25;;;;;;;24.92;16.63;;;10.60;99.90;;;;;;5035228;28;20205;-82
2022/04/30 14:46:51;;;;;;;22.70;16.95;;;10.60;99.90;;;;;;5029580;28;20180;-77
2022/04/30 14:49:17;;;;;;;20.95;16.38;;;10.70;99.90;;;;;;5017858;28;20045;-81
2022/04/30 14:51:43;;;;;;;24.33;17.35;;;10.80;99.90;;;;;;5027970;28;20049;-81
2022/04/30 14:54:08;;;;;;;21.70;17.05;;;10.80;99.90;;;;;;5034435;28;20034;-81
2022/04/30 14:56:34;;;;;;;24.38;18.05;;;10.80;99.90;;;;;;5017787;28;20042;-81
2022/04/30 14:59:00;;;;;;;23.90;18.08;;;10.80;99.90;;;;;;5017907;28;20026;-82
2022/04/30 15:01:26;;;;;;;22.42;17.25;;;10.80;99.90;;;;;;5018035;28;20038;-82
2022/04/30 15:03:51;;;;;;;23.92;18.45;;;10.70;99.90;;;;;;5016699;28;20407;-82
2022/04/30 15:06:17;;;;;;;23.67;18.88;;;10.70;99.90;;;;;;5034005;28;20042;-82
2022/04/30 15:08:43;;;;;;;23.27;18.77;;;10.70;99.90;;;;;;5035986;28;20034;-80
2022/04/30 15:11:08;;;;;;;24.08;18.48;;;10.70;99.90;;;;;;5038057;28;20061;-81
2022/04/30 15:13:34;;;;;;;23.38;18.33;;;10.60;99.90;;;;;;5037123;28;20113;-81
2022/04/30 15:15:59;;;;;;;22.40;17.58;;;10.60;99.90;;;;;;5035890;28;20042;-82
2022/04/30 15:18:27;;;;;;;23.02;18.17;;;10.60;99.90;;;;;;5032526;28;20145;-80
2022/04/30 15:20:53;;;;;;;23.10;17.98;;;10.70;99.90;;;;;;5027630;28;20117;-80
2022/04/30 15:23:19;;;;;;;24.92;17.05;;;10.60;99.90;;;;;;5028913;28;20050;-81
2022/04/30 15:25:46;;;;;;;23.35;17.42;;;10.70;99.90;;;;;;5035445;28;20423;-82
2022/04/30 15:28:13;;;;;;;23.55;17.33;;;10.70;99.90;;;;;;5035824;28;20034;-81
2022/04/30 15:30:42;;;;;;;24.95;17.20;;;10.80;99.90;;;;;;5030234;28;20085;-81
2022/04/30 15:33:11;;;;;;;20.75;16.98;;;10.80;99.90;;;;;;5016827;28;20113;-79
2022/04/30 15:35:37;;;;;;;24.00;17.13;;;10.80;99.90;;;;;;5015651;28;20100;-80
2022/04/30 15:38:04;;;;;;;22.63;17.15;;;10.80;99.90;;;;;;5017584;28;20555;-77
2022/04/30 15:40:29;;;;;;;25.13;17.65;;;10.80;99.90;;;;;;5019457;28;20030;-80
2022/04/30 15:42:55;;;;;;;23.70;17.50;;;10.80;99.90;;;;;;5019234;28;20042;-82
2022/04/30 15:45:21;;;;;;;22.65;17.15;;;10.70;99.90;;;;;;5015007;28;20034;-79
2022/04/30 15:53:47;;;;;;;20.38;16.05;;;10.70;99.90;;;;;;5016513;28;20038;-78
2022/04/30 15:56:02;;;;;;;21.02;16.50;;;10.60;99.90;;;;;;5015453;28;20133;-76
2022/04/30 15:58:28;;;;;;;24.13;17.92;;;10.50;99.90;;;;;;5017598;28;20085;-78
2022/04/30 16:00:54;;;;;;;23.58;17.17;;;10.50;99.90;;;;;;5025053;28;20030;-81
2022/04/30 16:03:19;;;;;;;22.52;17.83;;;10.40;99.90;;;;;;5022938;28;20038;-81
2022/04/30 16:05:45;;;;;;;23.67;17.75;;;10.30;99.90;;;;;;5016427;28;20041;-80
2022/04/30 16:08:11;;;;;;;23.10;17.73;;;10.30;99.90;;;;;;5017599;28;20102;-84
2022/04/30 16:10:37;;;;;;;24.05;17.85;;;10.30;99.90;;;;;;5018048;28;20182;-82
2022/04/30 16:13:03;;;;;;;23.67;18.33;;;10.30;99.90;;;;;;5015257;28;20038;-84
2022/04/30 16:15:28;;;;;;;26.80;19.38;;;10.30;99.90;;;;;;5042675;22;20141;-75
2022/04/30 16:17:54;;;;;;;24.90;18.02;;;10.20;99.90;;;;;;5034589;28;20048;-75
2022/04/30 16:20:20;;;;;;;24.40;18.15;;;10.20;99.90;;;;;;5034383;28;20120;-75
2022/04/30 16:22:47;;;;;;;27.60;19.10;;;10.20;99.90;;;;;;5034929;28;20053;-76
2022/04/30 16:25:13;;;;;;;24.85;18.38;;;10.10;99.90;;;;;;5034512;28;20042;-77
2022/04/30 16:27:39;;;;;;;24.13;19.38;;;10.10;99.90;;;;;;5034582;28;20072;-74
2022/04/30 16:30:10;;;;;;;26.05;19.48;;;10.00;99.90;;;;;;5035044;28;20448;-74
2022/04/30 16:32:37;;;;;;;25.35;19.13;;;10.10;99.90;;;;;;5032931;28;20138;-75
2022/04/30 16:35:03;;;;;;;27.02;20.05;;;10.10;99.90;;;;;;5032571;28;20109;-73
2022/04/30 16:37:28;;;;;;;28.15;20.20;;;10.00;99.90;;;;;;5034068;28;20038;-80
2022/04/30 16:39:54;;;;;;;26.33;19.92;;;10.00;99.90;;;;;;5034614;28;20105;-72
2022/04/30 16:42:21;;;;;;;28.05;19.98;;;10.00;99.90;;;;;;5033011;28;20129;-73
2022/04/30 16:44:47;;;;;;;28.63;20.60;;;10.00;99.90;;;;;;5034605;28;20034;-75
2022/04/30 16:47:13;;;;;;;28.85;21.50;;;10.00;99.90;;;;;;5033213;28;20033;-73
2022/04/30 16:49:38;;;;;;;26.83;20.08;;;10.00;99.90;;;;;;5034061;28;20586;-76
2022/04/30 16:57:35;;;;;;;27.25;20.48;;;10.20;99.90;;;;;;5034853;28;20034;-73
2022/04/30 17:00:10;;;;;;;25.13;19.33;;;10.20;99.90;;;;;;5034815;28;20034;-74
2022/04/30 17:02:38;;;;;;;25.20;19.10;;;10.20;99.90;;;;;;5034530;28;20551;-74
2022/04/30 17:05:05;;;;;;;25.23;19.63;;;10.40;99.90;;;;;;5034431;28;20042;-74
2022/04/30 17:07:33;;;;;;;24.80;18.85;;;10.50;99.90;;;;;;5034729;28;20116;-77
2022/04/30 17:10:03;;;;;;;28.42;18.58;;;10.50;99.90;;;;;;5033147;28;20109;-75
2022/04/30 17:12:29;;;;;;;23.90;18.08;;;10.50;99.90;;;;;;5034455;28;20045;-75
2022/04/30 17:14:55;;;;;;;23.08;18.25;;;10.60;99.90;;;;;;5032947;28;20053;-75
2022/04/30 17:17:24;;;;;;;27.30;19.10;;;10.50;99.90;;;;;;5033591;28;20037;-75